Time;durP1;ratioP1;P1;durP2;ratioP2;P2;SDS_P1;SDS_P2;PMS_P1;PMS_P2;Temp;Humidity;BMP_temperature;BMP_pressure;BME280_temperature;BME280_humidity;BME280_pressure;Samples;Min_cycle;Max_cycle;Signal;HPM_P1;HPM_P2
2022/12/31 00:00:56;;;;;;;11.90;2.78;;;11.50;99.90;;;;;;5006783;28;20042;-81
2022/12/31 00:03:21;;;;;;;15.57;3.50;;;11.50;99.90;;;;;;5006906;28;20049;-79
2022/12/31 00:05:47;;;;;;;15.50;3.17;;;11.50;99.90;;;;;;5006629;28;20444;-79
2022/12/31 00:08:12;;;;;;;14.88;3.67;;;11.70;99.90;;;;;;5006899;28;20045;-78
2022/12/31 00:10:40;;;;;;;14.20;3.50;;;11.50;99.90;;;;;;4988858;28;20137;-80
2022/12/31 00:13:09;;;;;;;12.07;3.30;;;11.50;99.90;;;;;;5006976;28;20145;-79
2022/12/31 00:15:35;;;;;;;17.50;3.45;;;11.80;99.90;;;;;;5006913;28;20088;-81
2022/12/31 00:18:01;;;;;;;15.13;2.90;;;11.60;99.90;;;;;;5006447;28;20050;-77
2022/12/31 00:20:27;;;;;;;17.40;3.58;;;11.60;99.90;;;;;;5006360;28;20163;-83
2022/12/31 00:22:53;;;;;;;18.80;4.55;;;11.60;99.90;;;;;;5009890;28;20431;-80
2022/12/31 00:25:19;;;;;;;27.35;4.47;;;12.00;99.90;;;;;;5009919;28;20085;-78
2022/12/31 00:27:44;;;;;;;16.75;4.07;;;11.60;99.90;;;;;;5010339;28;20042;-83
2022/12/31 00:30:10;;;;;;;19.50;3.63;;;11.90;99.90;;;;;;5010027;28;20403;-85
2022/12/31 00:32:36;;;;;;;19.52;3.45;;;11.60;99.90;;;;;;5010113;28;20054;-79
2022/12/31 00:35:02;;;;;;;18.17;4.13;;;11.70;99.90;;;;;;5010013;28;20171;-82
2022/12/31 00:37:27;;;;;;;23.42;4.93;;;11.60;99.90;;;;;;5008608;28;20118;-82
2022/12/31 00:39:53;;;;;;;17.00;3.85;;;11.50;99.90;;;;;;5009992;28;20046;-81
2022/12/31 00:42:18;;;;;;;19.63;4.50;;;11.60;99.90;;;;;;5009741;28;20065;-84
2022/12/31 00:44:44;;;;;;;23.65;4.00;;;11.60;99.90;;;;;;4992388;28;20096;-82
2022/12/31 00:47:10;;;;;;;16.83;3.80;;;11.60;99.90;;;;;;5009922;28;20033;-79
2022/12/31 00:49:35;;;;;;;24.48;4.22;;;12.20;99.90;;;;;;5008536;28;20511;-80
2022/12/31 00:52:01;;;;;;;18.95;4.28;;;11.80;99.90;;;;;;5007609;28;20411;-81
2022/12/31 00:54:26;;;;;;;22.30;4.78;;;11.80;99.90;;;;;;5009608;28;20045;-85
2022/12/31 00:56:52;;;;;;;26.80;4.40;;;11.90;99.90;;;;;;5009233;28;20057;-81
2022/12/31 00:59:18;;;;;;;20.70;5.18;;;12.00;99.90;;;;;;5008603;28;20054;-80
2022/12/31 01:01:43;;;;;;;26.35;4.43;;;11.60;99.90;;;;;;5009735;28;20058;-84
2022/12/31 01:04:12;;;;;;;23.05;4.45;;;11.60;99.90;;;;;;5009663;28;20069;-81
2022/12/31 01:06:38;;;;;;;20.15;4.10;;;11.90;99.90;;;;;;5007691;28;20058;-79
2022/12/31 01:09:05;;;;;;;20.83;4.53;;;11.70;99.90;;;;;;5009381;28;20439;-90
2022/12/31 01:11:31;;;;;;;20.05;3.92;;;12.10;99.90;;;;;;5009272;28;20095;-81
2022/12/31 01:14:15;;;;;;;17.10;4.05;;;11.70;99.90;;;;;;5009373;28;20472;-84
2022/12/31 01:16:47;;;;;;;15.95;4.15;;;11.50;99.90;;;;;;5009084;28;20133;-82
2022/12/31 01:19:16;;;;;;;16.02;3.90;;;12.00;99.90;;;;;;5009361;28;20488;-89
2022/12/31 01:21:43;;;;;;;16.20;3.90;;;11.50;99.90;;;;;;5009446;28;20531;-84
2022/12/31 01:24:09;;;;;;;12.65;3.15;;;11.90;99.90;;;;;;5008904;28;20145;-84
2022/12/31 01:26:36;;;;;;;21.92;4.03;;;11.80;99.90;;;;;;5009234;28;20067;-82
2022/12/31 01:29:02;;;;;;;14.88;3.83;;;11.50;99.90;;;;;;5007962;28;20054;-78
2022/12/31 01:31:28;;;;;;;19.05;3.75;;;11.50;99.90;;;;;;5008715;28;20129;-76
2022/12/31 01:33:54;;;;;;;15.43;3.92;;;11.60;99.90;;;;;;5009108;28;20128;-76
2022/12/31 01:36:22;;;;;;;11.57;3.20;;;11.50;99.90;;;;;;5008947;28;20130;-77
2022/12/31 01:38:48;;;;;;;14.00;4.20;;;11.60;99.90;;;;;;5008637;28;20144;-76
2022/12/31 01:41:20;;;;;;;16.25;4.53;;;11.70;99.90;;;;;;5008734;28;20057;-76
2022/12/31 01:44:21;;;;;;;14.05;3.80;;;11.60;99.90;;;;;;5009286;28;20050;-74
2022/12/31 01:46:51;;;;;;;11.90;3.75;;;11.60;99.90;;;;;;5009103;28;20441;-80
2022/12/31 01:49:25;;;;;;;16.40;4.72;;;11.50;99.90;;;;;;5008683;28;20071;-80
2022/12/31 01:52:04;;;;;;;12.25;4.55;;;11.80;99.90;;;;;;5008943;28;20054;-85
2022/12/31 01:54:34;;;;;;;15.23;4.53;;;11.50;99.90;;;;;;5008459;28;20086;-77
2022/12/31 01:57:00;;;;;;;17.77;4.65;;;11.50;99.90;;;;;;5008431;28;20420;-76
2022/12/31 01:59:28;;;;;;;13.15;4.32;;;11.50;99.90;;;;;;5008624;28;20061;-79
2022/12/31 02:01:54;;;;;;;16.40;4.40;;;11.60;99.90;;;;;;5008343;28;20120;-77
2022/12/31 02:04:22;;;;;;;14.23;4.80;;;11.50;99.90;;;;;;5008549;28;20042;-76
2022/12/31 02:06:54;;;;;;;12.93;4.70;;;12.00;99.90;;;;;;5008529;28;20701;-83
2022/12/31 02:09:20;;;;;;;12.32;5.07;;;11.70;99.90;;;;;;5006896;28;20042;-83
2022/12/31 02:11:45;;;;;;;13.55;4.45;;;11.60;99.90;;;;;;5007210;28;20503;-86
2022/12/31 02:14:17;;;;;;;10.48;4.40;;;12.00;99.90;;;;;;5008625;28;20183;-79
2022/12/31 02:16:52;;;;;;;15.80;4.45;;;11.80;99.90;;;;;;5007954;28;20053;-80
2022/12/31 02:19:38;;;;;;;12.10;4.75;;;11.50;99.90;;;;;;5007431;28;20050;-75
2022/12/31 02:22:32;;;;;;;12.82;4.18;;;11.50;99.90;;;;;;5008173;28;20062;-78
2022/12/31 02:25:25;;;;;;;8.63;3.72;;;11.50;99.90;;;;;;5007845;28;20105;-83
2022/12/31 02:28:14;;;;;;;9.57;4.30;;;11.50;99.90;;;;;;5006060;28;20094;-77
2022/12/31 02:30:43;;;;;;;8.93;3.50;;;11.50;99.90;;;;;;5007972;28;20132;-83
2022/12/31 02:33:23;;;;;;;14.77;4.47;;;11.70;99.90;;;;;;5006761;28;20496;-76
2022/12/31 02:35:55;;;;;;;11.32;3.83;;;11.50;99.90;;;;;;5008411;28;20167;-76
2022/12/31 02:38:24;;;;;;;12.57;3.78;;;11.50;99.90;;;;;;5008247;28;20046;-84
2022/12/31 02:40:51;;;;;;;12.73;3.65;;;11.80;99.90;;;;;;5007692;28;20063;-83
2022/12/31 02:43:17;;;;;;;9.10;3.15;;;11.50;99.90;;;;;;5007075;28;20057;-75
2022/12/31 02:45:48;;;;;;;9.23;3.42;;;11.70;99.90;;;;;;5008022;28;20038;-80
2022/12/31 02:48:32;;;;;;;11.98;3.25;;;11.40;99.90;;;;;;5007966;28;20042;-77
2022/12/31 02:51:36;;;;;;;9.93;2.97;;;11.40;99.90;;;;;;4990135;28;20057;-76
2022/12/31 02:54:13;;;;;;;7.97;2.47;;;11.40;99.90;;;;;;5007790;28;20046;-76
2022/12/31 02:56:59;;;;;;;8.75;2.30;;;11.70;99.90;;;;;;5005618;28;20052;-76
2022/12/31 03:02:20;;;;;;;8.98;2.30;;;11.80;99.90;;;;;;5007374;28;20057;-83
2022/12/31 03:04:50;;;;;;;7.70;1.95;;;11.40;99.90;;;;;;5007183;28;20049;-75
2022/12/31 03:07:27;;;;;;;7.20;2.17;;;11.50;99.90;;;;;;5005937;28;20063;-76
2022/12/31 03:09:53;;;;;;;6.30;1.98;;;11.30;99.90;;;;;;5005594;28;20662;-76
2022/12/31 03:15:18;;;;;;;6.97;1.88;;;11.40;99.90;;;;;;5007163;28;20045;-75
2022/12/31 03:17:48;;;;;;;7.15;1.75;;;11.20;99.90;;;;;;5007568;28;20046;-74
2022/12/31 03:22:58;;;;;;;6.55;1.20;;;11.20;99.90;;;;;;4987807;28;20062;-79
2022/12/31 03:28:28;;;;;;;7.65;1.25;;;11.10;99.90;;;;;;4949218;28;20046;-76
2022/12/31 03:30:59;;;;;;;8.65;1.38;;;11.50;99.90;;;;;;4966155;28;20046;-84
2022/12/31 03:33:25;;;;;;;6.38;1.15;;;11.00;99.90;;;;;;4984414;28;20140;-76
2022/12/31 03:35:51;;;;;;;5.30;1.20;;;11.00;99.90;;;;;;4965885;28;20057;-75
2022/12/31 03:38:18;;;;;;;4.03;0.80;;;11.00;99.90;;;;;;4965890;28;20418;-77
2022/12/31 03:40:47;;;;;;;5.43;1.20;;;11.00;99.90;;;;;;4949486;28;20055;-76
2022/12/31 03:43:13;;;;;;;5.13;1.10;;;11.00;99.90;;;;;;4964661;28;20137;-81
2022/12/31 03:45:39;;;;;;;5.80;1.10;;;11.00;99.90;;;;;;4965737;28;20558;-76
2022/12/31 03:48:06;;;;;;;8.98;1.08;;;11.20;99.90;;;;;;4965507;28;20485;-80
2022/12/31 03:50:33;;;;;;;6.78;1.10;;;10.90;99.90;;;;;;4965517;28;20073;-76
2022/12/31 03:52:59;;;;;;;5.57;0.75;;;10.80;99.90;;;;;;4965617;28;20051;-76
2022/12/31 03:55:24;;;;;;;4.95;1.30;;;10.80;99.90;;;;;;4968057;28;20047;-84
2022/12/31 03:57:50;;;;;;;10.23;1.17;;;11.00;99.90;;;;;;4968632;28;20140;-81
2022/12/31 04:00:19;;;;;;;3.45;0.80;;;10.90;99.90;;;;;;4952776;28;20132;-82
2022/12/31 04:02:48;;;;;;;5.78;0.90;;;10.80;99.90;;;;;;4953083;28;20501;-80
2022/12/31 04:05:15;;;;;;;5.32;1.10;;;10.80;99.90;;;;;;4984725;28;20520;-76
2022/12/31 04:07:41;;;;;;;4.50;0.93;;;10.70;99.90;;;;;;4990625;28;20046;-78
2022/12/31 04:10:09;;;;;;;6.68;0.88;;;11.40;99.90;;;;;;4993080;28;20042;-78
2022/12/31 04:12:35;;;;;;;7.25;1.45;;;10.70;99.90;;;;;;5009883;28;20057;-82
2022/12/31 04:15:01;;;;;;;11.77;1.40;;;11.00;99.90;;;;;;5008511;28;20050;-82
2022/12/31 04:17:26;;;;;;;5.88;0.88;;;10.70;99.90;;;;;;5009886;28;20105;-79
2022/12/31 04:19:52;;;;;;;6.38;1.10;;;10.70;99.90;;;;;;5010263;28;20042;-85
2022/12/31 04:22:18;;;;;;;6.07;1.35;;;10.70;99.90;;;;;;5009805;28;20420;-79
2022/12/31 04:24:44;;;;;;;8.20;1.75;;;10.70;99.90;;;;;;5009846;28;20137;-84
2022/12/31 04:27:12;;;;;;;10.50;2.05;;;11.00;99.90;;;;;;5009336;28;20878;-87
2022/12/31 04:29:38;;;;;;;7.05;1.90;;;10.80;99.90;;;;;;5009637;28;20435;-80
2022/12/31 04:32:05;;;;;;;7.03;1.77;;;10.90;99.90;;;;;;5008986;28;20083;-76
2022/12/31 04:34:31;;;;;;;5.68;1.83;;;10.80;99.90;;;;;;5010196;28;20058;-82
2022/12/31 04:36:57;;;;;;;6.97;1.73;;;10.90;99.90;;;;;;5009817;28;20064;-84
2022/12/31 04:39:23;;;;;;;8.73;2.38;;;10.70;99.90;;;;;;5009986;28;20043;-79
2022/12/31 04:41:49;;;;;;;11.60;2.25;;;10.80;99.90;;;;;;5008481;28;20430;-79
2022/12/31 04:44:15;;;;;;;7.70;1.90;;;10.70;99.90;;;;;;5008711;28;20069;-79
2022/12/31 04:46:41;;;;;;;9.10;2.10;;;10.70;99.90;;;;;;5036922;28;20068;-77
2022/12/31 04:49:07;;;;;;;7.28;1.85;;;10.90;99.90;;;;;;5092947;28;20668;-81
2022/12/31 04:51:32;;;;;;;6.13;1.83;;;10.60;99.90;;;;;;5060345;28;20042;-86
2022/12/31 04:53:58;;;;;;;6.35;1.67;;;11.10;99.90;;;;;;5009732;28;20069;-81
2022/12/31 04:56:24;;;;;;;5.22;2.08;;;10.60;99.90;;;;;;5008388;28;20085;-76
2022/12/31 04:58:50;;;;;;;9.23;1.73;;;10.60;99.90;;;;;;5005243;28;20045;-82
2022/12/31 05:01:16;;;;;;;9.20;2.10;;;10.60;99.90;;;;;;4990331;28;20577;-85
2022/12/31 05:03:42;;;;;;;9.45;1.92;;;10.60;99.90;;;;;;5009530;28;20132;-76
2022/12/31 05:06:11;;;;;;;6.65;1.65;;;10.60;99.90;;;;;;5008629;28;20057;-74
2022/12/31 05:08:37;;;;;;;7.05;1.80;;;10.60;99.90;;;;;;5009533;28;20085;-84
2022/12/31 05:11:03;;;;;;;8.05;2.25;;;10.60;99.90;;;;;;5006396;28;20082;-76
2022/12/31 05:13:29;;;;;;;10.77;2.35;;;10.70;99.90;;;;;;4990165;28;20463;-80
2022/12/31 05:15:54;;;;;;;8.32;2.10;;;10.60;99.90;;;;;;4994452;28;20523;-81
2022/12/31 05:18:20;;;;;;;5.13;1.70;;;11.00;99.90;;;;;;4998605;28;20046;-84
2022/12/31 05:20:46;;;;;;;8.15;2.30;;;10.60;99.90;;;;;;5009149;28;20046;-81
2022/12/31 05:23:14;;;;;;;8.77;2.08;;;10.60;99.90;;;;;;5009101;28;20080;-78
2022/12/31 05:25:41;;;;;;;6.00;2.00;;;11.00;99.90;;;;;;5009018;28;20137;-80
2022/12/31 05:28:07;;;;;;;7.22;2.10;;;10.60;99.90;;;;;;5008882;28;20030;-82
2022/12/31 05:30:33;;;;;;;10.13;2.63;;;10.60;99.90;;;;;;5008078;28;20060;-82
2022/12/31 05:32:58;;;;;;;9.40;2.30;;;10.60;99.90;;;;;;5008757;28;20081;-75
2022/12/31 05:35:24;;;;;;;7.85;2.20;;;10.60;99.90;;;;;;5009056;28;20092;-76
2022/12/31 05:37:50;;;;;;;10.35;2.53;;;10.60;99.90;;;;;;5008987;28;20095;-74
2022/12/31 05:40:16;;;;;;;6.78;2.20;;;10.60;99.90;;;;;;5008488;28;20045;-74
2022/12/31 05:42:41;;;;;;;7.05;2.10;;;10.70;99.90;;;;;;4992671;28;20047;-78
2022/12/31 05:45:07;;;;;;;10.75;2.47;;;11.10;99.90;;;;;;4988351;28;20050;-79
2022/12/31 05:47:33;;;;;;;8.82;1.60;;;10.60;99.90;;;;;;4987651;28;20054;-75
2022/12/31 05:49:59;;;;;;;5.30;1.88;;;10.70;99.90;;;;;;5000670;28;20057;-74
2022/12/31 05:52:24;;;;;;;8.98;1.67;;;10.70;99.90;;;;;;5093651;28;20054;-77
2022/12/31 05:54:50;;;;;;;5.75;1.80;;;10.70;99.90;;;;;;5007098;28;20042;-76
2022/12/31 05:57:16;;;;;;;8.55;1.88;;;10.70;99.90;;;;;;4989168;28;20389;-79
2022/12/31 05:59:41;;;;;;;8.13;1.60;;;10.70;99.90;;;;;;4987532;28;20042;-82
2022/12/31 06:02:07;;;;;;;10.85;2.75;;;11.20;99.90;;;;;;4989237;28;20054;-76
2022/12/31 06:04:33;;;;;;;5.65;1.92;;;10.70;99.90;;;;;;4987785;28;20076;-78
2022/12/31 06:06:59;;;;;;;9.70;2.53;;;10.70;99.90;;;;;;5001780;28;20053;-79
2022/12/31 06:09:24;;;;;;;7.03;1.90;;;10.70;99.90;;;;;;5008398;28;20091;-77
2022/12/31 06:11:50;;;;;;;4.55;1.13;;;11.20;99.90;;;;;;4990161;28;20046;-78
2022/12/31 06:14:15;;;;;;;5.60;1.10;;;10.60;99.90;;;;;;5008202;28;20046;-78
2022/12/31 06:16:42;;;;;;;4.47;0.70;;;10.60;99.90;;;;;;5008210;28;20318;-78
2022/12/31 06:19:08;;;;;;;3.90;0.95;;;10.50;99.90;;;;;;5038029;28;20420;-80
2022/12/31 06:21:34;;;;;;;4.82;0.90;;;10.70;99.90;;;;;;5111767;28;20490;-78
2022/12/31 06:23:59;;;;;;;4.63;0.90;;;10.40;99.90;;;;;;5111661;28;20055;-77
2022/12/31 06:26:26;;;;;;;3.22;0.63;;;10.40;99.90;;;;;;5111502;28;20473;-78
2022/12/31 06:28:51;;;;;;;3.10;0.73;;;10.30;99.90;;;;;;5064718;28;20153;-76
2022/12/31 06:31:17;;;;;;;4.38;0.80;;;10.30;99.90;;;;;;4988781;28;20133;-78
2022/12/31 06:33:45;;;;;;;2.67;0.70;;;10.30;99.90;;;;;;4988715;28;20378;-78
2022/12/31 06:36:13;;;;;;;3.40;1.35;;;10.30;99.90;;;;;;4988330;28;20038;-76
2022/12/31 06:38:40;;;;;;;6.45;2.40;;;11.10;99.90;;;;;;4988601;28;20465;-80
2022/12/31 06:41:07;;;;;;;8.25;4.03;;;10.30;99.90;;;;;;4993915;28;20050;-76
2022/12/31 06:43:34;;;;;;;7.63;4.95;;;10.30;99.90;;;;;;4988317;28;20464;-80
2022/12/31 06:46:00;;;;;;;8.90;5.10;;;10.80;99.90;;;;;;5003592;28;20038;-84
2022/12/31 06:48:26;;;;;;;9.30;4.53;;;10.40;99.90;;;;;;5008165;28;20136;-76
2022/12/31 06:50:52;;;;;;;7.63;4.30;;;10.80;99.90;;;;;;5007682;28;20129;-81
2022/12/31 06:53:17;;;;;;;9.18;4.47;;;10.40;99.90;;;;;;5007614;28;20057;-80
2022/12/31 06:55:43;;;;;;;11.55;4.63;;;10.60;99.90;;;;;;5006553;28;20099;-77
2022/12/31 06:58:13;;;;;;;6.13;4.20;;;10.40;99.90;;;;;;5007290;28;20595;-78
2022/12/31 07:00:54;;;;;;;8.60;4.18;;;10.40;99.90;;;;;;5007921;28;20046;-79
2022/12/31 07:03:19;;;;;;;8.55;3.95;;;10.60;99.90;;;;;;5008108;28;20061;-78
2022/12/31 07:06:03;;;;;;;5.30;3.05;;;10.40;99.90;;;;;;5007434;28;20045;-81
2022/12/31 07:09:07;;;;;;;7.40;3.10;;;10.40;99.90;;;;;;5007643;28;20042;-76
2022/12/31 07:11:55;;;;;;;7.00;2.85;;;10.40;99.90;;;;;;4937227;28;20094;-80
2022/12/31 07:14:47;;;;;;;6.95;2.97;;;10.40;99.90;;;;;;4954650;28;20093;-77
2022/12/31 07:17:34;;;;;;;6.95;2.90;;;10.40;99.90;;;;;;4965993;28;20568;-78
2022/12/31 07:20:18;;;;;;;5.50;2.60;;;10.40;99.90;;;;;;4965968;28;20054;-79
2022/12/31 07:22:45;;;;;;;7.20;2.90;;;10.30;99.90;;;;;;4965648;28;20065;-76
2022/12/31 07:25:16;;;;;;;5.78;2.67;;;10.30;99.90;;;;;;4965803;28;20826;-79
2022/12/31 07:27:56;;;;;;;4.68;2.85;;;10.30;99.90;;;;;;4948048;28;20043;-78
2022/12/31 07:30:28;;;;;;;5.13;2.80;;;10.30;99.90;;;;;;4965244;28;20090;-79
2022/12/31 07:33:15;;;;;;;5.40;3.13;;;10.30;99.90;;;;;;4949829;28;20097;-76
2022/12/31 07:36:11;;;;;;;5.75;2.92;;;10.30;99.90;;;;;;4955985;28;20059;-82
2022/12/31 07:39:00;;;;;;;4.20;2.53;;;10.30;99.90;;;;;;4929952;29;20063;-79
2022/12/31 07:41:47;;;;;;;4.80;2.50;;;10.30;99.90;;;;;;4952894;28;20051;-77
2022/12/31 07:44:34;;;;;;;3.38;2.25;;;10.20;99.90;;;;;;4965797;28;20089;-77
2022/12/31 07:47:02;;;;;;;4.55;2.70;;;10.30;99.90;;;;;;4965549;28;20138;-77
2022/12/31 07:49:29;;;;;;;3.75;2.38;;;10.30;99.90;;;;;;4986181;28;20084;-79
2022/12/31 07:51:55;;;;;;;4.00;2.78;;;10.20;99.90;;;;;;4987550;28;20050;-76
2022/12/31 07:54:21;;;;;;;3.60;2.65;;;10.30;99.90;;;;;;5005901;28;20438;-76
2022/12/31 07:56:48;;;;;;;3.47;2.35;;;10.30;99.90;;;;;;5005904;28;20046;-76
2022/12/31 07:59:34;;;;;;;4.85;3.25;;;10.40;99.90;;;;;;5007001;28;20136;-77
2022/12/31 08:02:28;;;;;;;4.82;3.22;;;10.20;99.90;;;;;;5007096;28;20087;-77
2022/12/31 08:05:12;;;;;;;5.95;2.85;;;10.30;99.90;;;;;;5007125;28;20087;-79
2022/12/31 08:08:13;;;;;;;3.85;2.72;;;10.20;99.90;;;;;;5006669;28;20057;-76
2022/12/31 08:10:58;;;;;;;5.85;3.00;;;10.20;99.90;;;;;;5007005;28;20452;-78
2022/12/31 08:13:24;;;;;;;5.20;3.03;;;10.30;99.90;;;;;;4986367;28;20446;-78
2022/12/31 08:15:50;;;;;;;4.18;2.70;;;10.60;99.90;;;;;;4987272;28;20042;-77
2022/12/31 08:18:16;;;;;;;3.47;2.53;;;10.20;99.90;;;;;;4987393;28;20723;-77
2022/12/31 08:21:08;;;;;;;4.47;2.55;;;10.30;99.90;;;;;;4987280;28;20046;-78
2022/12/31 08:23:42;;;;;;;2.88;2.03;;;10.30;99.90;;;;;;4996838;28;20062;-77
2022/12/31 08:26:18;;;;;;;5.15;2.20;;;10.30;99.90;;;;;;5006323;28;20046;-82
2022/12/31 08:28:56;;;;;;;3.83;2.03;;;10.30;99.90;;;;;;5005465;28;20038;-77
2022/12/31 08:31:39;;;;;;;3.08;1.85;;;10.40;99.90;;;;;;5021836;28;20043;-79
2022/12/31 08:34:17;;;;;;;4.13;2.08;;;10.40;99.90;;;;;;5006677;28;20046;-77
2022/12/31 08:36:59;;;;;;;3.65;2.45;;;10.40;99.90;;;;;;5006884;28;20049;-80
2022/12/31 08:39:38;;;;;;;3.35;2.10;;;10.50;99.90;;;;;;5006460;28;20038;-81
2022/12/31 08:42:24;;;;;;;4.18;2.47;;;10.50;99.90;;;;;;5008769;28;20045;-78
2022/12/31 08:45:10;;;;;;;3.92;2.40;;;10.60;99.90;;;;;;5010019;28;20053;-79
2022/12/31 08:48:02;;;;;;;3.88;2.90;;;11.00;99.90;;;;;;5008939;28;20050;-75
2022/12/31 08:50:28;;;;;;;5.07;3.50;;;10.60;99.90;;;;;;5009217;28;20459;-80
2022/12/31 08:52:54;;;;;;;4.05;3.08;;;10.70;99.90;;;;;;5009979;28;20037;-77
2022/12/31 08:55:20;;;;;;;5.80;3.75;;;10.70;99.90;;;;;;5009557;28;20452;-78
2022/12/31 08:58:17;;;;;;;6.20;3.95;;;10.80;99.90;;;;;;5009425;28;20058;-80
2022/12/31 09:00:44;;;;;;;4.45;3.30;;;10.90;99.90;;;;;;5009482;28;20132;-76
2022/12/31 09:03:33;;;;;;;4.72;3.72;;;11.20;99.90;;;;;;5009498;28;20045;-80
2022/12/31 09:06:18;;;;;;;4.50;3.55;;;11.00;99.90;;;;;;5008163;28;20046;-79
2022/12/31 09:08:54;;;;;;;5.20;4.00;;;11.10;99.90;;;;;;5009268;28;20056;-76
2022/12/31 09:11:50;;;;;;;4.68;3.72;;;11.20;99.90;;;;;;5092419;28;20054;-78
2022/12/31 09:14:35;;;;;;;5.40;4.15;;;11.30;99.90;;;;;;5024253;28;20068;-78
2022/12/31 09:17:15;;;;;;;5.90;4.15;;;11.30;99.90;;;;;;5007247;28;20050;-74
2022/12/31 09:19:41;;;;;;;6.78;4.18;;;11.80;99.90;;;;;;5001155;28;20053;-77
2022/12/31 09:22:10;;;;;;;5.07;3.45;;;11.50;99.90;;;;;;4997244;28;20400;-75
2022/12/31 09:24:35;;;;;;;6.13;3.20;;;11.60;99.90;;;;;;4999936;28;20058;-84
2022/12/31 09:27:21;;;;;;;6.18;3.17;;;11.60;99.90;;;;;;4998800;28;20060;-77
2022/12/31 09:30:04;;;;;;;;;;;11.70;99.90;;;;;;5019474;28;20042;-76
2022/12/31 09:32:49;;;;;;;4.65;2.05;;;11.80;99.90;;;;;;5002292;28;19968;-83
2022/12/31 09:35:20;;;;;;;3.75;1.95;;;11.90;99.90;;;;;;5088897;28;20059;-81
2022/12/31 09:37:55;;;;;;;5.43;2.45;;;11.90;99.90;;;;;;5091833;28;20117;-78
2022/12/31 09:40:39;;;;;;;4.97;2.15;;;11.90;99.90;;;;;;5092145;28;20801;-82
2022/12/31 09:43:33;;;;;;;5.70;1.93;;;12.00;99.90;;;;;;5091606;28;20106;-76
2022/12/31 09:46:30;;;;;;;6.45;1.77;;;12.00;99.90;;;;;;5091717;28;20120;-77
2022/12/31 09:49:14;;;;;;;6.50;2.00;;;12.10;99.90;;;;;;5028899;28;20471;-81
2022/12/31 09:52:12;;;;;;;3.08;1.67;;;12.10;99.90;;;;;;5028559;28;20424;-76
2022/12/31 09:55:02;;;;;;;5.82;1.98;;;12.20;99.90;;;;;;5012086;28;20526;-78
2022/12/31 09:57:53;;;;;;;3.35;1.10;;;12.20;99.90;;;;;;5028904;28;20443;-76
2022/12/31 10:00:43;;;;;;;4.43;0.93;;;12.30;99.90;;;;;;5012394;28;20569;-77
2022/12/31 10:03:50;;;;;;;5.10;0.90;;;12.40;99.90;;;;;;5037003;28;20099;-79
2022/12/31 10:06:27;;;;;;;3.78;0.52;;;12.50;99.90;;;;;;5048812;28;20060;-78
2022/12/31 10:09:04;;;;;;;4.15;0.52;;;12.50;99.90;;;;;;5048650;28;20063;-77
2022/12/31 10:12:07;;;;;;;3.95;0.70;;;12.60;99.90;;;;;;5031882;28;20057;-82
2022/12/31 10:14:54;;;;;;;3.83;0.85;;;12.70;99.90;;;;;;5048067;28;20128;-79
2022/12/31 10:17:42;;;;;;;5.88;1.17;;;12.80;99.90;;;;;;5048559;28;20436;-82
2022/12/31 10:20:32;;;;;;;6.55;0.93;;;12.80;99.90;;;;;;5048301;28;20045;-79
2022/12/31 10:23:19;;;;;;;9.32;1.10;;;12.90;99.90;;;;;;5048292;28;20102;-80
2022/12/31 10:26:11;;;;;;;4.75;0.90;;;12.90;99.90;;;;;;5017502;28;20061;-79
2022/12/31 10:28:53;;;;;;;6.15;0.75;;;13.00;99.90;;;;;;4988804;28;20060;-78
2022/12/31 10:31:39;;;;;;;7.53;0.90;;;13.00;99.90;;;;;;4988341;28;20491;-81
2022/12/31 10:34:13;;;;;;;7.78;0.88;;;13.10;99.90;;;;;;4988725;28;20424;-79
2022/12/31 10:36:56;;;;;;;5.30;1.08;;;13.10;99.90;;;;;;4988314;28;20046;-81
2022/12/31 10:39:37;;;;;;;6.20;0.90;;;13.00;99.90;;;;;;4988560;28;20515;-80
2022/12/31 10:42:28;;;;;;;5.68;0.70;;;13.00;99.90;;;;;;4988603;28;20130;-78
2022/12/31 10:45:20;;;;;;;6.90;0.95;;;13.10;99.90;;;;;;4987496;28;20673;-84
2022/12/31 10:48:10;;;;;;;7.00;1.05;;;13.10;99.90;;;;;;5027942;28;20057;-77
2022/12/31 10:51:04;;;;;;;5.90;0.80;;;13.10;99.90;;;;;;5032929;28;20147;-82
2022/12/31 10:53:51;;;;;;;9.57;1.40;;;13.10;99.90;;;;;;5027871;28;20049;-77
2022/12/31 10:56:42;;;;;;;11.18;1.48;;;13.10;99.90;;;;;;5011575;28;20053;-79
2022/12/31 10:59:19;;;;;;;8.70;1.20;;;13.10;99.90;;;;;;5027822;28;20063;-82
2022/12/31 11:02:08;;;;;;;9.90;1.90;;;13.20;99.90;;;;;;5027380;28;20158;-81
2022/12/31 11:05:01;;;;;;;7.95;1.17;;;13.20;99.90;;;;;;5027059;28;20077;-76
2022/12/31 11:07:50;;;;;;;7.70;1.27;;;13.20;99.90;;;;;;5039891;28;20088;-81
2022/12/31 11:10:37;;;;;;;8.15;1.17;;;13.20;99.90;;;;;;5047123;28;20478;-83
2022/12/31 11:13:15;;;;;;;15.50;2.05;;;13.20;99.90;;;;;;5047369;28;20037;-83
2022/12/31 11:15:43;;;;;;;11.07;1.40;;;13.20;99.90;;;;;;5047320;28;20226;-80
2022/12/31 11:18:30;;;;;;;10.20;1.38;;;13.20;99.90;;;;;;5047144;28;20072;-78
2022/12/31 11:21:03;;;;;;;13.00;1.60;;;13.20;99.90;;;;;;5047254;28;20052;-76
2022/12/31 11:23:41;;;;;;;11.32;1.23;;;13.20;99.90;;;;;;5028632;28;20130;-78
2022/12/31 11:26:28;;;;;;;13.13;1.63;;;13.30;99.90;;;;;;4988105;28;20562;-77
2022/12/31 11:28:56;;;;;;;11.48;2.33;;;13.30;99.90;;;;;;4988201;28;20050;-78
2022/12/31 11:31:29;;;;;;;5.28;1.30;;;13.30;99.90;;;;;;4987507;28;20061;-74
2022/12/31 11:34:10;;;;;;;12.43;2.40;;;13.30;99.90;;;;;;4986870;28;20058;-78
2022/12/31 11:36:54;;;;;;;9.93;1.50;;;13.30;99.90;;;;;;5008869;28;20463;-76
2022/12/31 11:39:53;;;;;;;10.68;1.83;;;13.40;99.90;;;;;;4987890;28;20042;-79
2022/12/31 11:42:39;;;;;;;11.35;1.95;;;13.40;99.90;;;;;;4987601;28;20050;-83
2022/12/31 11:45:11;;;;;;;9.38;1.63;;;13.30;99.90;;;;;;4987661;28;20047;-78
2022/12/31 11:47:48;;;;;;;7.97;1.33;;;13.50;99.90;;;;;;4987337;28;20099;-78
2022/12/31 11:50:14;;;;;;;6.13;1.02;;;13.30;99.90;;;;;;4986092;28;20061;-84
2022/12/31 11:53:24;;;;;;;7.35;2.25;;;13.50;99.90;;;;;;4987630;28;20050;-80
2022/12/31 11:56:14;;;;;;;6.75;1.40;;;13.50;99.90;;;;;;5000823;28;20046;-77
2022/12/31 11:58:51;;;;;;;5.00;1.20;;;13.50;99.90;;;;;;5006972;28;20046;-76
2022/12/31 12:01:31;;;;;;;9.27;1.80;;;13.70;99.90;;;;;;5005829;28;20390;-79
2022/12/31 12:03:56;;;;;;;5.60;0.93;;;13.50;99.90;;;;;;5006618;28;20050;-76
2022/12/31 12:06:27;;;;;;;6.85;1.05;;;13.60;99.90;;;;;;5006797;28;20091;-77
2022/12/31 12:08:58;;;;;;;7.50;1.30;;;13.50;99.90;;;;;;5007023;28;20042;-82
2022/12/31 12:11:28;;;;;;;8.35;1.83;;;13.60;99.90;;;;;;5007169;28;20132;-76
2022/12/31 12:13:54;;;;;;;8.68;1.58;;;13.50;99.90;;;;;;5006870;28;20046;-77
2022/12/31 12:16:22;;;;;;;5.05;1.63;;;13.50;99.90;;;;;;5009568;28;20473;-79
2022/12/31 12:18:59;;;;;;;5.90;1.02;;;13.50;99.90;;;;;;5008455;28;20089;-75
2022/12/31 12:21:25;;;;;;;6.13;1.40;;;13.50;99.90;;;;;;5010302;28;20135;-82
2022/12/31 12:24:04;;;;;;;13.15;2.08;;;13.50;99.90;;;;;;5009708;28;20516;-77
2022/12/31 12:26:37;;;;;;;15.13;2.45;;;13.40;99.90;;;;;;5025492;28;20051;-76
2022/12/31 12:29:19;;;;;;;13.63;2.15;;;13.40;99.90;;;;;;5010254;28;20038;-76
2022/12/31 12:31:56;;;;;;;12.00;2.05;;;13.40;99.90;;;;;;5009892;28;20061;-78
2022/12/31 12:34:25;;;;;;;10.88;2.15;;;13.40;99.90;;;;;;4989810;28;20087;-75
2022/12/31 12:36:51;;;;;;;20.80;2.28;;;13.40;99.90;;;;;;4990489;28;20049;-77
2022/12/31 12:39:26;;;;;;;11.45;1.98;;;13.30;99.90;;;;;;5003377;28;20372;-78
2022/12/31 12:42:18;;;;;;;11.65;1.65;;;13.40;99.90;;;;;;5008777;28;20158;-78
2022/12/31 12:44:44;;;;;;;13.13;2.10;;;13.40;99.90;;;;;;5006880;28;20461;-79
2022/12/31 12:47:16;;;;;;;9.98;1.70;;;13.40;99.90;;;;;;5008393;28;20050;-82
2022/12/31 12:49:45;;;;;;;7.28;1.58;;;13.40;99.90;;;;;;5009624;28;20073;-78
2022/12/31 12:52:32;;;;;;;8.93;1.60;;;13.40;99.90;;;;;;5009618;28;20050;-76
2022/12/31 12:55:10;;;;;;;11.15;2.65;;;13.40;99.90;;;;;;5008696;28;20057;-77
2022/12/31 12:58:03;;;;;;;9.57;1.40;;;13.60;99.90;;;;;;5009979;28;20085;-75
2022/12/31 13:00:57;;;;;;;11.82;1.65;;;13.40;99.90;;;;;;5007780;28;20068;-76
2022/12/31 13:03:38;;;;;;;12.83;1.70;;;13.40;99.90;;;;;;5006185;28;20058;-74
2022/12/31 13:06:03;;;;;;;7.72;1.40;;;13.40;99.90;;;;;;5008143;28;20061;-76
2022/12/31 13:08:54;;;;;;;11.80;2.08;;;13.30;99.90;;;;;;5009502;28;20042;-76
2022/12/31 13:11:41;;;;;;;12.32;1.60;;;13.30;99.90;;;;;;5007922;28;20054;-76
2022/12/31 13:14:27;;;;;;;12.32;1.73;;;13.30;99.90;;;;;;5009219;28;20060;-77
2022/12/31 13:17:21;;;;;;;10.63;1.80;;;13.20;99.90;;;;;;4999287;28;20054;-74
2022/12/31 13:19:57;;;;;;;13.00;1.65;;;13.20;99.90;;;;;;4991913;28;20125;-74
2022/12/31 13:22:43;;;;;;;12.27;1.80;;;13.30;99.90;;;;;;4991892;28;20069;-74
2022/12/31 13:25:43;;;;;;;11.43;1.88;;;13.20;99.90;;;;;;4989824;28;20107;-77
2022/12/31 13:28:12;;;;;;;10.10;1.63;;;13.10;99.90;;;;;;4989074;28;20192;-77
2022/12/31 13:30:41;;;;;;;19.92;1.85;;;13.10;99.90;;;;;;4989434;28;20053;-75